Time;durP1;ratioP1;P1;durP2;ratioP2;P2;SDS_P1;SDS_P2;PMS_P1;PMS_P2;Temp;Humidity;BMP_temperature;BMP_pressure;BME280_temperature;BME280_humidity;BME280_pressure;Samples;Min_cycle;Max_cycle;Signal;HPM_P1;HPM_P2
2022/07/25 00:00:34;;;;;;;2.90;2.70;;;22.20;99.90;;;;;;5095445;28;20563;-83
2022/07/25 00:03:00;;;;;;;3.38;2.88;;;22.20;99.90;;;;;;5092599;28;20066;-83
2022/07/25 00:05:28;;;;;;;3.53;2.90;;;22.20;96.10;;;;;;5076881;28;20367;-83
2022/07/25 00:07:54;;;;;;;3.83;3.03;;;22.30;99.90;;;;;;5096620;28;20040;-83
2022/07/25 00:10:20;;;;;;;3.33;3.00;;;22.20;99.90;;;;;;5092709;28;20046;-83
2022/07/25 00:12:46;;;;;;;3.30;3.00;;;22.20;99.90;;;;;;5091405;28;20062;-83
2022/07/25 00:15:12;;;;;;;5.07;3.25;;;22.20;99.90;;;;;;5076262;28;20040;-83
2022/07/25 00:17:38;;;;;;;4.80;3.38;;;22.20;99.90;;;;;;5074725;28;20039;-83
2022/07/25 00:20:05;;;;;;;3.50;3.08;;;22.20;97.80;;;;;;5087639;28;20105;-83
2022/07/25 00:22:31;;;;;;;4.00;3.08;;;22.20;99.90;;;;;;5092230;28;20167;-83
2022/07/25 00:24:57;;;;;;;3.90;3.20;;;22.20;99.90;;;;;;5092951;28;20078;-83
2022/07/25 00:27:22;;;;;;;4.60;3.20;;;22.20;99.90;;;;;;5073525;28;20072;-83
2022/07/25 00:29:48;;;;;;;5.10;3.50;;;22.20;99.90;;;;;;5095751;28;20047;-83
2022/07/25 00:32:14;;;;;;;4.35;3.50;;;22.20;99.90;;;;;;5084806;28;20036;-83
2022/07/25 00:34:40;;;;;;;4.60;3.80;;;22.20;93.90;;;;;;5086455;28;20081;-83
2022/07/25 00:37:05;;;;;;;3.88;3.47;;;22.20;99.90;;;;;;5090974;28;20042;-83
2022/07/25 00:39:31;;;;;;;4.50;3.90;;;22.10;99.90;;;;;;5075074;28;20071;-82
2022/07/25 00:41:57;;;;;;;3.70;3.40;;;22.10;99.90;;;;;;5089984;28;20032;-83
2022/07/25 00:44:25;;;;;;;4.57;4.00;;;22.00;73.30;;;;;;5077834;28;20060;-82
2022/07/25 00:46:51;;;;;;;5.63;3.70;;;22.00;82.30;;;;;;5073852;28;20048;-83
2022/07/25 00:49:17;;;;;;;5.30;3.67;;;21.90;99.90;;;;;;5055907;28;20052;-82
2022/07/25 00:51:43;;;;;;;5.13;4.00;;;21.90;57.60;;;;;;5074701;28;20063;-82
2022/07/25 00:54:09;;;;;;;5.80;4.57;;;21.80;99.90;;;;;;5084803;28;20500;-83
2022/07/25 00:56:35;;;;;;;6.15;4.22;;;21.70;99.90;;;;;;5092084;28;20039;-83
2022/07/25 00:59:02;;;;;;;5.45;4.38;;;21.70;99.90;;;;;;5094136;28;20112;-83
2022/07/25 01:01:27;;;;;;;5.60;4.57;;;21.70;99.90;;;;;;5098901;28;20077;-83
2022/07/25 01:03:53;;;;;;;5.50;4.40;;;21.60;99.90;;;;;;5099835;28;20023;-82
2022/07/25 01:06:20;;;;;;;6.93;4.57;;;21.60;99.90;;;;;;5086609;28;20130;-83
2022/07/25 01:08:46;;;;;;;5.63;4.50;;;21.50;99.90;;;;;;5090425;28;20041;-83
2022/07/25 01:11:12;;;;;;;5.85;4.93;;;21.50;99.90;;;;;;5076841;28;20047;-83
2022/07/25 01:13:38;;;;;;;5.57;4.97;;;21.50;99.90;;;;;;5096929;28;20544;-83
2022/07/25 01:16:04;;;;;;;5.45;4.95;;;21.50;99.90;;;;;;5078394;28;20075;-83
2022/07/25 01:18:33;;;;;;;6.53;5.00;;;21.40;99.90;;;;;;5096367;28;20036;-82
2022/07/25 01:21:00;;;;;;;6.38;5.13;;;21.40;99.90;;;;;;5076075;28;20050;-82
2022/07/25 01:23:26;;;;;;;8.70;5.40;;;21.30;99.90;;;;;;5097246;28;20078;-83
2022/07/25 01:25:51;;;;;;;6.53;5.32;;;21.20;99.90;;;;;;5094074;28;20077;-82
2022/07/25 01:28:17;;;;;;;7.43;5.90;;;21.20;99.90;;;;;;5097109;28;20119;-83
2022/07/25 01:30:43;;;;;;;7.82;5.85;;;21.20;99.90;;;;;;5080491;28;20039;-83
2022/07/25 01:33:09;;;;;;;9.90;6.03;;;21.20;99.90;;;;;;5095702;28;20044;-83
2022/07/25 01:35:38;;;;;;;7.50;5.97;;;21.10;99.90;;;;;;5075692;28;20609;-82
2022/07/25 01:38:03;;;;;;;7.00;6.20;;;21.10;99.90;;;;;;5090303;28;20040;-83
2022/07/25 01:40:29;;;;;;;6.97;6.25;;;21.00;99.90;;;;;;5098474;28;20040;-82
2022/07/25 01:42:55;;;;;;;7.95;6.75;;;21.00;99.90;;;;;;5096458;28;20032;-83
2022/07/25 01:45:20;;;;;;;7.85;6.97;;;21.00;99.90;;;;;;5080264;28;20071;-83
2022/07/25 01:47:46;;;;;;;9.95;7.07;;;21.00;99.90;;;;;;5095867;28;20046;-83
2022/07/25 01:50:12;;;;;;;10.30;7.40;;;20.90;99.90;;;;;;5082662;28;20079;-82
2022/07/25 01:52:38;;;;;;;8.43;6.93;;;20.90;99.90;;;;;;5087222;28;20537;-82
2022/07/25 01:55:04;;;;;;;9.95;7.65;;;21.00;99.90;;;;;;5096198;28;20514;-83
2022/07/25 01:57:30;;;;;;;8.40;7.40;;;20.90;99.90;;;;;;5078168;28;20417;-83
2022/07/25 01:59:56;;;;;;;8.40;7.60;;;20.90;99.90;;;;;;5101049;28;20044;-83
2022/07/25 02:02:21;;;;;;;8.85;7.80;;;20.80;99.90;;;;;;5087617;28;20042;-82
2022/07/25 02:04:47;;;;;;;9.20;8.15;;;20.80;99.90;;;;;;5086768;28;20050;-82
2022/07/25 02:07:13;;;;;;;11.93;7.53;;;20.80;99.90;;;;;;5089540;28;20118;-82
2022/07/25 02:09:40;;;;;;;10.15;7.68;;;20.80;99.90;;;;;;5077237;28;20414;-82
2022/07/25 02:12:06;;;;;;;9.43;8.40;;;20.80;99.90;;;;;;5091347;28;20062;-82
2022/07/25 02:14:32;;;;;;;9.18;8.23;;;20.80;99.90;;;;;;5089427;28;20050;-83
2022/07/25 02:16:58;;;;;;;10.68;7.97;;;20.80;99.90;;;;;;5081813;28;20491;-82
2022/07/25 02:19:24;;;;;;;10.77;7.95;;;20.80;99.90;;;;;;5089657;28;20788;-82
2022/07/25 02:21:50;;;;;;;9.25;8.25;;;20.80;99.90;;;;;;5097787;28;20088;-83
2022/07/25 02:24:15;;;;;;;9.13;8.07;;;20.70;99.90;;;;;;5102556;28;20154;-82
2022/07/25 02:26:41;;;;;;;8.88;7.95;;;20.70;99.90;;;;;;5101234;28;20050;-83
2022/07/25 02:29:07;;;;;;;8.77;7.90;;;20.70;99.90;;;;;;5101503;28;20067;-82
2022/07/25 02:31:32;;;;;;;10.65;8.88;;;20.60;99.90;;;;;;5096686;28;20047;-82
2022/07/25 02:33:58;;;;;;;9.32;8.45;;;20.60;99.90;;;;;;5074476;28;20483;-82
2022/07/25 02:36:24;;;;;;;10.00;8.93;;;20.60;99.90;;;;;;5089388;28;20061;-82
2022/07/25 02:38:50;;;;;;;9.50;8.52;;;20.60;99.90;;;;;;5088515;28;20051;-83
2022/07/25 02:41:16;;;;;;;9.63;8.57;;;20.60;99.90;;;;;;5090050;28;20085;-82
2022/07/25 02:43:41;;;;;;;10.70;8.30;;;20.60;99.90;;;;;;5093403;28;20040;-83
2022/07/25 02:46:07;;;;;;;10.38;9.13;;;20.60;99.90;;;;;;5092596;28;20077;-82
2022/07/25 02:48:33;;;;;;;9.82;8.70;;;20.60;99.90;;;;;;5104851;28;20502;-83
2022/07/25 02:50:59;;;;;;;9.60;8.60;;;20.60;99.90;;;;;;5083243;28;20102;-82
2022/07/25 02:53:24;;;;;;;9.25;8.35;;;20.60;99.90;;;;;;5096970;28;20055;-83
2022/07/25 02:55:50;;;;;;;10.20;8.10;;;20.60;99.90;;;;;;5075701;28;20123;-83
2022/07/25 02:58:16;;;;;;;8.80;7.80;;;20.60;99.90;;;;;;5081258;28;20062;-83
2022/07/25 03:00:41;;;;;;;10.02;8.50;;;20.70;99.90;;;;;;5097252;28;20082;-82
2022/07/25 03:03:07;;;;;;;9.50;8.50;;;20.70;99.90;;;;;;5102490;28;20089;-82
2022/07/25 03:05:33;;;;;;;9.93;8.43;;;20.60;99.90;;;;;;5070803;28;20046;-83
2022/07/25 03:07:59;;;;;;;10.30;8.40;;;20.50;99.90;;;;;;5092113;28;20046;-82
2022/07/25 03:10:24;;;;;;;9.00;8.10;;;20.50;99.90;;;;;;5071652;28;20337;-83
2022/07/25 03:12:50;;;;;;;9.10;8.15;;;20.50;99.90;;;;;;5074554;28;20079;-82
2022/07/25 03:15:16;;;;;;;8.90;7.95;;;20.30;99.90;;;;;;5096110;28;20066;-82
2022/07/25 03:17:42;;;;;;;10.80;7.45;;;20.30;99.90;;;;;;5094579;28;20127;-83
2022/07/25 03:20:08;;;;;;;10.00;8.20;;;20.30;99.90;;;;;;5079129;28;20097;-83
2022/07/25 03:22:34;;;;;;;11.13;8.05;;;20.30;99.90;;;;;;5087046;28;20090;-82
2022/07/25 03:25:00;;;;;;;9.85;8.07;;;20.20;99.90;;;;;;5102257;28;20047;-83
2022/07/25 03:27:26;;;;;;;11.43;8.07;;;20.20;99.90;;;;;;5096621;28;20040;-83
2022/07/25 03:29:53;;;;;;;9.63;8.73;;;20.10;99.90;;;;;;5075257;28;20387;-82
2022/07/25 03:32:19;;;;;;;9.27;8.38;;;20.20;99.90;;;;;;5095607;28;20055;-83
2022/07/25 03:34:45;;;;;;;9.27;8.10;;;20.20;99.90;;;;;;5083831;28;20491;-83
2022/07/25 03:37:10;;;;;;;9.93;8.93;;;20.10;99.90;;;;;;5073668;28;20092;-83
2022/07/25 03:39:36;;;;;;;9.93;8.93;;;20.00;99.90;;;;;;5074009;28;20087;-83
2022/07/25 03:42:02;;;;;;;9.45;8.52;;;20.00;99.90;;;;;;5078130;28;20565;-83
2022/07/25 03:44:28;;;;;;;10.27;9.35;;;20.10;99.90;;;;;;5084530;28;20060;-82
2022/07/25 03:46:53;;;;;;;11.20;8.85;;;19.90;99.90;;;;;;5085724;28;20047;-82
2022/07/25 03:49:19;;;;;;;9.43;8.52;;;20.00;99.90;;;;;;5097510;28;20451;-83
2022/07/25 03:51:45;;;;;;;8.27;7.43;;;20.00;99.90;;;;;;5093207;28;20050;-83
2022/07/25 03:54:14;;;;;;;8.80;7.82;;;20.00;99.90;;;;;;5094144;28;20044;-83
2022/07/25 03:56:45;;;;;;;8.93;7.85;;;20.00;99.90;;;;;;5089369;28;20044;-83
2022/07/25 03:59:14;;;;;;;9.93;8.75;;;20.00;99.90;;;;;;5083563;28;20039;-83
2022/07/25 04:01:40;;;;;;;11.98;8.40;;;19.90;99.90;;;;;;5080714;28;20522;-83
2022/07/25 04:04:07;;;;;;;9.48;7.75;;;19.90;99.90;;;;;;5076684;28;20155;-83
2022/07/25 04:06:32;;;;;;;8.35;7.45;;;19.90;99.90;;;;;;5072321;28;20031;-82
2022/07/25 04:09:02;;;;;;;8.07;7.32;;;19.80;99.90;;;;;;5072164;28;20069;-82
2022/07/25 04:11:29;;;;;;;8.75;7.85;;;19.80;99.90;;;;;;5097895;28;20053;-82
2022/07/25 04:13:56;;;;;;;8.32;7.47;;;19.90;99.90;;;;;;5096109;28;20094;-82
2022/07/25 04:16:25;;;;;;;8.60;7.70;;;19.90;99.90;;;;;;5091650;28;20039;-82
2022/07/25 04:18:50;;;;;;;11.85;9.15;;;20.00;99.90;;;;;;5089010;28;20067;-83
2022/07/25 04:21:16;;;;;;;8.93;8.02;;;20.00;99.90;;;;;;5068172;28;20120;-82
2022/07/25 04:23:42;;;;;;;10.00;8.30;;;19.90;99.90;;;;;;5089551;28;20152;-82
2022/07/25 04:26:08;;;;;;;9.02;8.13;;;19.90;99.90;;;;;;5076880;28;20406;-82
2022/07/25 04:28:33;;;;;;;9.93;8.73;;;20.00;99.90;;;;;;5089233;28;20047;-82
2022/07/25 04:31:00;;;;;;;10.45;8.40;;;20.10;99.90;;;;;;5085225;28;20047;-82
2022/07/25 04:33:28;;;;;;;10.85;9.45;;;20.20;99.90;;;;;;5097225;28;20069;-82
2022/07/25 04:35:54;;;;;;;13.93;10.07;;;20.30;99.90;;;;;;5061599;28;20558;-83
2022/07/25 04:38:19;;;;;;;11.63;9.82;;;20.40;99.90;;;;;;5093354;28;20040;-83
2022/07/25 04:40:46;;;;;;;13.70;9.82;;;20.40;99.90;;;;;;5082208;28;20035;-82
2022/07/25 04:43:11;;;;;;;11.32;10.07;;;20.60;99.90;;;;;;5077059;28;20047;-83
2022/07/25 04:45:38;;;;;;;10.60;9.52;;;20.70;99.90;;;;;;5083524;28;20035;-83
2022/07/25 04:48:04;;;;;;;11.00;9.90;;;20.90;99.90;;;;;;5082868;28;20486;-83
2022/07/25 04:50:30;;;;;;;13.63;10.48;;;21.00;99.90;;;;;;5092405;28;20062;-82
2022/07/25 04:52:59;;;;;;;12.63;10.82;;;21.00;99.90;;;;;;5094611;28;20035;-83
2022/07/25 04:55:25;;;;;;;11.27;10.10;;;21.00;99.90;;;;;;5079702;28;20046;-83
2022/07/25 04:57:50;;;;;;;12.70;9.82;;;21.00;99.90;;;;;;5074236;28;20046;-83
2022/07/25 05:00:16;;;;;;;11.77;10.57;;;21.10;99.90;;;;;;5078367;28;20036;-82
2022/07/25 05:02:42;;;;;;;15.68;10.55;;;21.10;99.90;;;;;;5091444;28;20046;-82
2022/07/25 05:05:17;;;;;;;11.10;9.95;;;21.10;99.90;;;;;;5066476;28;20525;-82
2022/07/25 05:07:43;;;;;;;12.60;10.55;;;21.20;99.90;;;;;;5084334;28;20096;-89
2022/07/25 05:10:09;;;;;;;11.20;9.98;;;21.30;99.90;;;;;;5077000;28;20135;-90
2022/07/25 05:12:35;;;;;;;14.20;9.98;;;21.40;99.90;;;;;;5081202;28;20043;-89
2022/07/25 05:15:01;;;;;;;11.20;10.10;;;21.40;99.90;;;;;;5089444;28;20495;-90
2022/07/25 05:17:28;;;;;;;13.23;10.70;;;21.50;99.90;;;;;;5086958;28;20100;-90
2022/07/25 05:19:53;;;;;;;11.30;10.10;;;21.60;99.90;;;;;;5083778;28;21117;-89
2022/07/25 05:22:19;;;;;;;11.27;10.18;;;21.70;99.90;;;;;;5077757;28;20032;-89
2022/07/25 05:24:45;;;;;;;11.85;10.65;;;21.80;99.90;;;;;;5077991;28;20051;-91
2022/07/25 05:27:11;;;;;;;12.98;11.27;;;21.80;99.90;;;;;;5078239;28;20395;-90
2022/07/25 05:29:36;;;;;;;11.85;10.65;;;22.00;69.10;;;;;;5079000;28;20047;-90
2022/07/25 05:32:02;;;;;;;11.95;10.82;;;22.00;99.90;;;;;;5082342;28;20035;-90
2022/07/25 05:34:28;;;;;;;12.43;10.75;;;21.90;99.90;;;;;;5076684;28;20290;-90
2022/07/25 05:36:54;;;;;;;13.07;11.63;;;22.00;96.50;;;;;;5080137;28;20032;-90
2022/07/25 05:39:19;;;;;;;14.80;10.75;;;22.00;62.50;;;;;;5077797;28;20047;-90
2022/07/25 05:41:45;;;;;;;12.57;10.70;;;22.00;71.40;;;;;;5097234;27;20035;-90
2022/07/25 05:44:11;;;;;;;16.85;11.65;;;22.00;32.10;;;;;;5101382;27;20100;-89
2022/07/25 05:46:37;;;;;;;13.35;10.85;;;22.00;99.90;;;;;;5095465;27;20551;-90
2022/07/25 05:49:02;;;;;;;12.50;11.20;;;22.10;87.40;;;;;;5081128;28;20110;-90
2022/07/25 05:51:28;;;;;;;11.45;10.25;;;22.10;94.70;;;;;;5080918;27;20039;-90
2022/07/25 05:53:54;;;;;;;13.77;10.63;;;22.30;40.00;;;;;;5076697;27;20047;-82
2022/07/25 05:56:20;;;;;;;12.90;10.73;;;22.30;92.60;;;;;;5085322;27;20109;-82
2022/07/25 05:58:49;;;;;;;11.75;9.73;;;22.40;1.00;;;;;;5083026;28;20124;-82
2022/07/25 06:01:15;;;;;;;11.98;10.35;;;22.60;1.00;;;;;;5095839;27;20484;-82
2022/07/25 06:03:41;;;;;;;13.98;10.60;;;22.70;13.90;;;;;;5096094;27;20039;-82
2022/07/25 06:06:07;;;;;;;12.00;10.63;;;22.80;1.00;;;;;;5088253;28;20081;-82
2022/07/25 06:08:37;;;;;;;13.00;10.32;;;23.00;1.00;;;;;;5078856;27;20515;-82
2022/07/25 06:11:04;;;;;;;13.43;9.95;;;23.10;1.00;;;;;;5077103;28;20038;-82
2022/07/25 06:13:30;;;;;;;11.57;10.05;;;23.30;1.00;;;;;;5082010;27;20296;-82
2022/07/25 06:15:56;;;;;;;13.93;10.73;;;23.40;1.00;;;;;;5102735;27;20035;-83
2022/07/25 06:18:23;;;;;;;12.27;10.70;;;23.40;1.00;;;;;;5074785;27;20036;-82
2022/07/25 06:20:48;;;;;;;11.88;10.60;;;23.30;1.00;;;;;;5091642;27;20165;-82
2022/07/25 06:23:15;;;;;;;11.68;9.77;;;23.40;1.00;;;;;;5100579;27;20131;-82
2022/07/25 06:25:40;;;;;;;12.32;10.40;;;23.30;1.00;;;;;;5075470;28;20041;-82
2022/07/25 06:28:09;;;;;;;13.93;10.35;;;23.30;1.00;;;;;;5090283;28;20036;-82
2022/07/25 06:30:35;;;;;;;13.88;9.52;;;23.30;1.00;;;;;;5073996;27;20044;-82
2022/07/25 06:33:01;;;;;;;12.38;10.45;;;23.30;1.00;;;;;;5078418;27;20049;-83
2022/07/25 06:35:26;;;;;;;10.75;9.57;;;23.30;1.00;;;;;;5076095;27;20084;-82
2022/07/25 06:37:52;;;;;;;12.73;10.52;;;23.40;1.00;;;;;;5095448;28;20086;-90
2022/07/25 06:40:17;;;;;;;12.38;10.98;;;23.50;1.00;;;;;;5097811;27;20039;-90
2022/07/25 06:42:45;;;;;;;11.63;10.48;;;23.60;1.00;;;;;;5098568;27;20039;-89
2022/07/25 06:45:15;;;;;;;11.70;10.60;;;23.80;1.00;;;;;;5070809;28;20814;-91
2022/07/25 06:47:41;;;;;;;12.48;10.43;;;24.00;1.00;;;;;;5081815;27;20122;-89
2022/07/25 06:50:10;;;;;;;13.25;10.98;;;24.10;1.00;;;;;;5087490;28;20194;-88
2022/07/25 06:52:36;;;;;;;13.80;11.05;;;24.30;99.90;;;;;;5080084;28;20035;-89
2022/07/25 06:55:03;;;;;;;12.05;10.85;;;24.60;99.90;;;;;;5097031;27;20088;-90
2022/07/25 06:57:29;;;;;;;12.98;11.63;;;24.80;99.90;;;;;;5078027;28;20035;-89
2022/07/25 06:59:55;;;;;;;13.43;10.70;;;24.80;99.90;;;;;;5090519;27;20486;-90
2022/07/25 07:02:21;;;;;;;13.02;10.95;;;25.10;99.90;;;;;;5075222;27;20036;-89
2022/07/25 07:04:46;;;;;;;12.82;10.25;;;25.30;99.90;;;;;;5075911;28;20474;-89
2022/07/25 07:07:12;;;;;;;15.48;11.27;;;25.30;99.90;;;;;;5077491;28;20460;-89
2022/07/25 07:09:38;;;;;;;12.02;10.70;;;25.10;99.90;;;;;;5094210;27;20092;-90
2022/07/25 07:12:04;;;;;;;14.07;11.27;;;25.00;99.90;;;;;;5096729;28;20359;-88
2022/07/25 07:14:29;;;;;;;12.88;10.45;;;24.80;99.90;;;;;;5092954;27;20050;-90
2022/07/25 07:16:55;;;;;;;12.23;11.02;;;24.80;1.00;;;;;;5087691;28;20031;-90
2022/07/25 07:19:21;;;;;;;12.55;10.40;;;24.60;99.90;;;;;;5072741;27;20443;-90
2022/07/25 07:21:48;;;;;;;12.13;10.55;;;24.90;1.00;;;;;;5065913;28;20047;-88
2022/07/25 07:24:14;;;;;;;12.02;10.82;;;24.80;99.90;;;;;;5092093;28;20453;-89
2022/07/25 07:26:40;;;;;;;12.98;11.20;;;24.90;99.90;;;;;;5091394;27;20118;-90
2022/07/25 07:29:05;;;;;;;12.20;11.02;;;24.90;99.90;;;;;;5081207;27;20047;-89
2022/07/25 07:31:31;;;;;;;12.30;11.00;;;24.70;1.00;;;;;;5080401;27;20046;-89
2022/07/25 07:33:58;;;;;;;11.40;10.20;;;24.90;99.90;;;;;;5096286;28;20040;-89
2022/07/25 07:36:24;;;;;;;11.73;10.52;;;24.90;99.90;;;;;;5080949;27;20047;-90
2022/07/25 07:38:51;;;;;;;11.85;10.43;;;24.70;1.00;;;;;;5101514;27;20067;-90
2022/07/25 07:41:18;;;;;;;14.00;10.63;;;24.80;99.90;;;;;;5077997;27;20475;-88
2022/07/25 07:43:44;;;;;;;13.07;10.32;;;24.90;99.90;;;;;;5079654;28;20447;-88
2022/07/25 07:46:10;;;;;;;13.52;9.80;;;25.10;99.90;;;;;;5068912;28;20067;-89
2022/07/25 07:48:35;;;;;;;11.65;10.45;;;25.30;99.90;;;;;;5091312;27;20089;-89
2022/07/25 07:51:03;;;;;;;12.27;10.43;;;25.60;99.90;;;;;;5073793;27;20051;-90
2022/07/25 07:56:14;;;;;;;13.00;10.75;;;25.90;99.90;;;;;;5103195;27;20486;-90
2022/07/25 07:58:40;;;;;;;11.85;10.48;;;25.60;99.90;;;;;;5076008;28;20139;-92
2022/07/25 08:01:06;;;;;;;11.80;9.63;;;25.40;99.90;;;;;;5081028;27;20231;-89
2022/07/25 08:03:32;;;;;;;12.63;9.82;;;25.60;99.90;;;;;;5080388;28;20399;-89
2022/07/25 08:06:01;;;;;;;10.18;8.20;;;25.60;99.90;;;;;;5095627;27;20027;-89
2022/07/25 08:08:26;;;;;;;9.88;8.45;;;25.60;99.90;;;;;;5082745;27;20103;-89
2022/07/25 08:10:52;;;;;;;10.77;8.60;;;25.40;99.90;;;;;;5104263;27;20161;-89
2022/07/25 08:13:21;;;;;;;9.73;8.10;;;25.50;99.90;;;;;;5095279;27;20043;-90
2022/07/25 08:15:53;;;;;;;10.95;7.88;;;25.30;99.90;;;;;;5061957;28;20044;-88
2022/07/25 08:18:19;;;;;;;11.93;7.47;;;25.20;99.90;;;;;;5103452;27;20050;-90
2022/07/25 08:20:45;;;;;;;8.20;6.50;;;25.10;99.90;;;;;;5068722;28;20050;-90
2022/07/25 08:23:11;;;;;;;9.05;6.80;;;25.10;99.90;;;;;;5082111;28;20121;-89
2022/07/25 08:25:38;;;;;;;7.35;6.60;;;25.10;99.90;;;;;;5078152;27;20039;-89
2022/07/25 08:28:05;;;;;;;8.23;6.68;;;25.20;99.90;;;;;;5077725;28;20042;-89
2022/07/25 08:30:32;;;;;;;6.68;5.97;;;25.40;99.90;;;;;;5073412;28;20061;-88
2022/07/25 08:33:00;;;;;;;7.25;6.55;;;25.50;99.90;;;;;;5084421;28;20070;-88
2022/07/25 08:35:27;;;;;;;7.15;6.40;;;25.50;99.90;;;;;;5078757;27;20397;-90
2022/07/25 08:37:53;;;;;;;7.60;6.40;;;25.30;99.90;;;;;;5080461;28;20066;-88
2022/07/25 08:40:21;;;;;;;6.95;6.25;;;25.10;99.90;;;;;;5077860;28;20042;-89
2022/07/25 08:42:51;;;;;;;9.18;6.63;;;24.90;99.90;;;;;;5099467;27;20067;-88
2022/07/25 08:45:18;;;;;;;6.85;6.15;;;24.70;99.90;;;;;;5083026;28;20410;-90
2022/07/25 08:47:49;;;;;;;8.48;6.78;;;24.50;99.90;;;;;;5082498;28;20035;-89
2022/07/25 08:50:20;;;;;;;8.25;6.53;;;24.40;99.90;;;;;;5092548;28;20418;-89
2022/07/25 08:52:47;;;;;;;6.63;5.95;;;24.40;99.90;;;;;;5075203;28;20039;-89
2022/07/25 08:55:18;;;;;;;6.60;5.88;;;24.40;99.90;;;;;;5062515;28;20040;-89
2022/07/25 08:57:45;;;;;;;6.05;5.15;;;24.50;99.90;;;;;;5090267;28;20047;-90
2022/07/25 09:00:15;;;;;;;6.45;5.72;;;24.60;1.00;;;;;;5094990;28;20039;-89
2022/07/25 09:02:42;;;;;;;8.80;5.25;;;24.60;1.00;;;;;;5065077;28;20111;-89
2022/07/25 09:05:08;;;;;;;6.97;5.88;;;24.70;1.00;;;;;;5069008;28;20560;-88
2022/07/25 09:07:37;;;;;;;7.45;6.30;;;24.80;1.00;;;;;;5089436;28;20042;-89
2022/07/25 09:10:16;;;;;;;8.02;6.55;;;24.80;1.00;;;;;;5098910;28;20325;-90
2022/07/25 09:12:54;;;;;;;6.90;6.20;;;24.90;1.00;;;;;;5080646;28;20474;-89
2022/07/25 09:15:38;;;;;;;7.32;6.50;;;25.10;99.90;;;;;;5093468;28;20399;-88
2022/07/25 09:18:05;;;;;;;5.65;4.88;;;25.20;1.00;;;;;;5084929;27;20042;-89
2022/07/25 09:20:49;;;;;;;3.10;2.70;;;24.80;99.90;;;;;;5096795;27;20031;-89
2022/07/25 09:23:26;;;;;;;3.88;3.05;;;24.60;99.90;;;;;;5100113;27;20076;-89
2022/07/25 09:26:00;;;;;;;2.97;2.55;;;24.80;99.90;;;;;;5094165;27;20477;-89
2022/07/25 09:28:26;;;;;;;4.30;2.70;;;24.70;99.90;;;;;;5103441;27;20347;-90
2022/07/25 09:30:57;;;;;;;7.82;2.70;;;25.00;99.90;;;;;;5086595;27;20043;-88
2022/07/25 09:33:24;;;;;;;3.22;2.42;;;24.80;99.90;;;;;;5087535;27;20058;-90
2022/07/25 09:35:50;;;;;;;3.50;2.58;;;24.90;99.90;;;;;;5097800;28;20528;-88
2022/07/25 09:38:17;;;;;;;4.35;2.40;;;25.10;99.90;;;;;;5081311;27;20050;-90
2022/07/25 09:40:57;;;;;;;3.00;2.60;;;25.10;99.90;;;;;;5101586;27;20452;-89
2022/07/25 09:43:37;;;;;;;3.45;2.50;;;25.00;99.90;;;;;;5097951;27;20074;-89
2022/07/25 09:46:04;;;;;;;4.68;2.35;;;25.50;99.90;;;;;;5084563;27;20035;-89
2022/07/25 09:48:30;;;;;;;3.47;2.45;;;25.70;99.90;;;;;;5099054;27;20050;-90
2022/07/25 09:50:57;;;;;;;2.55;2.35;;;26.60;99.90;;;;;;5097008;28;20183;-91
2022/07/25 09:53:23;;;;;;;4.88;2.50;;;26.20;99.90;;;;;;5078790;27;20268;-90
2022/07/25 09:55:52;;;;;;;3.28;2.08;;;27.00;99.90;;;;;;5102600;27;20074;-89
2022/07/25 09:58:17;;;;;;;3.45;2.20;;;26.60;99.90;;;;;;5083732;27;20035;-91
2022/07/25 10:00:44;;;;;;;2.85;1.90;;;26.30;99.90;;;;;;5085911;27;20058;-88
2022/07/25 10:03:32;;;;;;;2.72;2.00;;;26.60;99.90;;;;;;5058717;28;20451;-90
2022/07/25 10:06:15;;;;;;;3.13;2.17;;;26.30;99.90;;;;;;5091339;27;20035;-90
2022/07/25 10:08:42;;;;;;;3.85;1.92;;;27.00;99.90;;;;;;5079837;27;20074;-91
2022/07/25 10:11:18;;;;;;;3.35;1.73;;;26.80;99.90;;;;;;5081154;27;20083;-89
2022/07/25 10:13:44;;;;;;;3.90;1.90;;;26.90;99.90;;;;;;5097864;28;20111;-89
2022/07/25 10:16:21;;;;;;;6.25;2.40;;;26.70;99.90;;;;;;5084538;27;20457;-91
2022/07/25 10:18:55;;;;;;;3.92;2.30;;;26.70;99.90;;;;;;5097935;27;20039;-90
2022/07/25 10:21:23;;;;;;;4.93;2.70;;;26.40;99.90;;;;;;5097619;27;20043;-90
2022/07/25 10:24:08;;;;;;;4.03;2.10;;;26.50;99.90;;;;;;5086805;27;20050;-89
2022/07/25 10:26:40;;;;;;;2.35;1.60;;;26.20;99.90;;;;;;5101706;28;20036;-89
2022/07/25 10:29:13;;;;;;;2.25;1.63;;;25.60;99.90;;;;;;5093072;27;20486;-89
2022/07/25 10:31:45;;;;;;;2.58;1.40;;;25.50;99.90;;;;;;5095109;27;20086;-90
2022/07/25 10:34:15;;;;;;;3.33;1.70;;;25.30;99.90;;;;;;5081054;27;20043;-89
2022/07/25 10:36:41;;;;;;;2.80;1.60;;;25.50;99.90;;;;;;5085033;27;20126;-88
2022/07/25 10:39:09;;;;;;;3.38;1.60;;;25.30;99.90;;;;;;5088243;27;20441;-89
2022/07/25 10:41:54;;;;;;;5.00;1.98;;;25.50;99.90;;;;;;5094170;27;20075;-89
2022/07/25 10:44:20;;;;;;;2.30;1.67;;;25.50;99.90;;;;;;5096016;27;20097;-88
2022/07/25 10:46:47;;;;;;;2.13;1.67;;;25.50;99.90;;;;;;5101701;27;20055;-90
2022/07/25 10:49:24;;;;;;;4.75;1.95;;;25.60;99.90;;;;;;5072914;27;20122;-90
2022/07/25 10:52:02;;;;;;;2.90;1.70;;;25.50;99.90;;;;;;5104367;27;20113;-89
2022/07/25 10:54:34;;;;;;;21.67;2.55;;;25.10;99.90;;;;;;5080302;27;20043;-90
2022/07/25 10:57:00;;;;;;;6.22;1.90;;;24.50;99.90;;;;;;5081199;27;20047;-88
2022/07/25 10:59:31;;;;;;;2.75;1.90;;;24.30;1.00;;;;;;5073053;27;20667;-88
2022/07/25 11:01:57;;;;;;;4.85;1.95;;;24.00;1.00;;;;;;5100589;27;20512;-89
2022/07/25 11:04:23;;;;;;;5.40;2.17;;;23.80;77.80;;;;;;5098987;27;20395;-90
2022/07/25 11:06:49;;;;;;;4.38;2.50;;;23.80;99.90;;;;;;5097468;27;20051;-89
2022/07/25 11:09:19;;;;;;;5.63;2.25;;;24.10;99.90;;;;;;5083538;27;20043;-89
2022/07/25 11:11:47;;;;;;;5.93;2.40;;;24.20;99.90;;;;;;5076993;28;20376;-89
2022/07/25 11:14:29;;;;;;;4.03;2.40;;;24.70;99.90;;;;;;5086210;27;20039;-88
2022/07/25 11:16:55;;;;;;;3.95;2.40;;;25.10;99.90;;;;;;5065503;27;20078;-88
2022/07/25 11:19:26;;;;;;;4.28;2.00;;;25.60;1.00;;;;;;5080377;27;20074;-88
2022/07/25 11:21:54;;;;;;;5.57;2.30;;;25.60;1.00;;;;;;5077215;27;20039;-89
2022/07/25 11:24:21;;;;;;;6.70;2.58;;;25.80;1.00;;;;;;5087230;27;20046;-88
2022/07/25 11:26:52;;;;;;;7.03;2.60;;;25.20;99.90;;;;;;5081953;27;20435;-87
2022/07/25 11:29:28;;;;;;;5.85;2.72;;;24.50;1.00;;;;;;5094445;27;20036;-88
2022/07/25 11:31:59;;;;;;;4.65;2.03;;;24.70;99.90;;;;;;5081944;27;20047;-89
2022/07/25 11:34:30;;;;;;;5.97;2.58;;;24.80;1.00;;;;;;5077136;28;20048;-88
2022/07/25 11:36:58;;;;;;;5.57;2.33;;;24.50;99.90;;;;;;5103636;27;20043;-88
2022/07/25 11:39:26;;;;;;;4.70;2.17;;;24.60;99.90;;;;;;5081634;27;20043;-88
2022/07/25 11:42:06;;;;;;;7.00;2.25;;;24.70;99.90;;;;;;5082661;27;20047;-88
2022/07/25 11:44:35;;;;;;;6.47;2.03;;;25.10;99.90;;;;;;5105104;27;20134;-88
2022/07/25 11:47:01;;;;;;;6.40;2.58;;;25.70;99.90;;;;;;5106333;27;20050;-88
2022/07/25 11:49:27;;;;;;;3.60;2.35;;;25.60;99.90;;;;;;5091135;27;20073;-89
2022/07/25 11:51:53;;;;;;;6.13;2.22;;;25.60;99.90;;;;;;5097410;27;20042;-89
2022/07/25 11:54:22;;;;;;;7.07;2.25;;;25.50;99.90;;;;;;5100257;27;20460;-88
2022/07/25 11:56:48;;;;;;;6.07;2.50;;;25.40;99.90;;;;;;5097663;28;20039;-88
2022/07/25 11:59:14;;;;;;;4.80;2.30;;;25.30;99.90;;;;;;5080598;27;20039;-87
2022/07/25 12:01:42;;;;;;;6.10;2.35;;;25.20;99.90;;;;;;5082412;27;20510;-89
2022/07/25 12:04:14;;;;;;;6.18;2.15;;;24.90;99.90;;;;;;5081296;27;20046;-91
2022/07/25 12:06:45;;;;;;;5.85;2.45;;;25.10;99.90;;;;;;5082084;27;20057;-88
2022/07/25 12:09:14;;;;;;;6.00;2.17;;;24.90;99.90;;;;;;5080577;27;20096;-90
2022/07/25 12:11:41;;;;;;;7.85;2.38;;;24.50;1.00;;;;;;5081579;27;20432;-88
2022/07/25 12:14:07;;;;;;;6.93;2.60;;;24.30;1.00;;;;;;5096551;27;20051;-87
2022/07/25 12:16:34;;;;;;;7.80;2.80;;;24.30;1.00;;;;;;5072538;28;20417;-88
2022/07/25 12:18:59;;;;;;;7.40;2.53;;;24.50;1.00;;;;;;5094087;28;20385;-88
2022/07/25 12:21:26;;;;;;;4.80;2.35;;;24.60;1.00;;;;;;5098334;27;20039;-88
2022/07/25 12:23:52;;;;;;;4.03;1.80;;;24.80;1.00;;;;;;5083242;28;20122;-88
2022/07/25 12:26:18;;;;;;;4.78;2.15;;;25.20;1.00;;;;;;5078466;27;20123;-88
2022/07/25 12:28:44;;;;;;;5.40;2.10;;;25.20;99.90;;;;;;5104827;27;20058;-88
2022/07/25 12:31:10;;;;;;;5.70;2.10;;;25.20;99.90;;;;;;5077986;27;20047;-87
2022/07/25 12:33:36;;;;;;;3.90;2.17;;;25.00;99.90;;;;;;5097476;28;20055;-88
2022/07/25 12:36:03;;;;;;;3.97;2.30;;;24.70;99.90;;;;;;5079014;28;20074;-90
2022/07/25 12:38:29;;;;;;;6.10;2.13;;;24.80;99.90;;;;;;5094267;28;20047;-88
2022/07/25 12:40:55;;;;;;;6.55;2.40;;;25.90;99.90;;;;;;5101890;27;20126;-88
2022/07/25 12:43:21;;;;;;;6.82;2.08;;;26.30;99.90;;;;;;5082014;27;20128;-89
2022/07/25 12:45:47;;;;;;;5.60;1.98;;;26.00;99.90;;;;;;5077103;28;20036;-88